createdAt,value
2017-09-30T00:00:26.756Z,0
2017-09-30T00:01:28.441Z,0
2017-09-30T00:02:30.144Z,0
2017-09-30T00:03:31.845Z,0
2017-09-30T00:04:33.531Z,0
2017-09-30T00:05:35.219Z,0
2017-09-30T00:06:36.948Z,0
2017-09-30T00:07:38.665Z,0
2017-09-30T00:08:40.460Z,0
2017-09-30T00:09:42.189Z,0
2017-09-30T00:10:43.912Z,0
2017-09-30T00:11:45.663Z,0
2017-09-30T00:12:47.403Z,0
2017-09-30T00:13:49.180Z,0
2017-09-30T00:14:50.972Z,0
2017-09-30T00:15:52.724Z,0
2017-09-30T00:16:54.472Z,0
2017-09-30T00:17:56.192Z,0
2017-09-30T00:18:57.961Z,0
2017-09-30T00:19:59.718Z,0
2017-09-30T00:21:01.515Z,0
2017-09-30T00:22:03.361Z,0
2017-09-30T00:23:05.122Z,0
2017-09-30T00:24:06.898Z,0
2017-09-30T00:25:08.630Z,0
2017-09-30T00:26:13.201Z,0
2017-09-30T00:27:14.943Z,0
2017-09-30T00:28:20.121Z,0
2017-09-30T00:29:21.833Z,0
2017-09-30T00:30:23.614Z,0
2017-09-30T00:31:25.363Z,0
2017-09-30T00:32:27.076Z,0
2017-09-30T00:33:28.844Z,0
2017-09-30T00:34:30.624Z,0
2017-09-30T00:35:32.450Z,0
2017-09-30T00:36:34.163Z,0
2017-09-30T00:37:35.951Z,0
2017-09-30T00:38:37.676Z,0
2017-09-30T00:39:39.451Z,0
2017-09-30T00:40:41.273Z,0
2017-09-30T00:41:43.005Z,0
2017-09-30T00:42:44.716Z,0
2017-09-30T00:43:46.477Z,0
2017-09-30T00:44:48.211Z,0
2017-09-30T00:45:49.962Z,0
2017-09-30T00:46:51.702Z,0
2017-09-30T00:47:53.414Z,0
2017-09-30T00:48:55.165Z,0
2017-09-30T00:49:56.914Z,0
2017-09-30T00:50:58.686Z,0
2017-09-30T00:52:00.443Z,0
2017-09-30T00:53:02.257Z,0
2017-09-30T00:54:04.009Z,0
2017-09-30T00:55:05.846Z,0
2017-09-30T00:56:07.546Z,0
2017-09-30T00:57:09.227Z,0
2017-09-30T00:58:10.965Z,0
2017-09-30T00:59:12.659Z,0
2017-09-30T01:00:16.131Z,0
2017-09-30T01:01:17.946Z,0
2017-09-30T01:02:19.681Z,0
2017-09-30T01:03:21.441Z,0
2017-09-30T01:04:23.210Z,0
2017-09-30T01:05:24.981Z,0
2017-09-30T01:06:26.689Z,0
2017-09-30T01:07:28.422Z,0
2017-09-30T01:08:30.209Z,0
2017-09-30T01:09:31.946Z,0
2017-09-30T01:10:33.686Z,0
2017-09-30T01:11:35.421Z,0
2017-09-30T01:12:37.152Z,0
2017-09-30T01:13:38.944Z,0
2017-09-30T01:14:40.761Z,0
2017-09-30T01:15:42.529Z,0
2017-09-30T01:16:44.300Z,0
2017-09-30T01:17:46.030Z,0
2017-09-30T01:18:47.947Z,0
2017-09-30T01:19:49.730Z,0
2017-09-30T01:20:51.461Z,0
2017-09-30T01:21:53.163Z,0
2017-09-30T01:22:54.905Z,0
2017-09-30T01:23:56.683Z,0
2017-09-30T01:24:58.439Z,0
2017-09-30T01:26:00.240Z,0
2017-09-30T01:27:01.997Z,0
2017-09-30T01:28:03.843Z,0
2017-09-30T01:29:05.627Z,0
2017-09-30T01:30:07.375Z,0
2017-09-30T01:31:09.065Z,0
2017-09-30T01:32:10.804Z,0
2017-09-30T01:33:12.555Z,0
2017-09-30T01:34:14.405Z,0
2017-09-30T01:35:16.141Z,0
2017-09-30T01:36:17.954Z,0
2017-09-30T01:37:19.731Z,0
2017-09-30T01:38:21.455Z,0
2017-09-30T01:39:23.212Z,0
2017-09-30T01:40:24.955Z,0
2017-09-30T01:41:26.728Z,0
2017-09-30T01:42:28.482Z,0
2017-09-30T01:43:30.248Z,0
2017-09-30T01:44:32.004Z,0
2017-09-30T01:45:33.819Z,0
2017-09-30T01:46:35.563Z,0
2017-09-30T01:47:37.348Z,0
2017-09-30T01:48:39.133Z,0
2017-09-30T01:49:40.933Z,0
2017-09-30T01:50:42.694Z,0
2017-09-30T01:51:44.449Z,0
2017-09-30T01:52:46.198Z,0
2017-09-30T01:53:47.946Z,0
2017-09-30T01:54:49.740Z,0
2017-09-30T02:01:37.643Z,0
2017-09-30T02:02:38.795Z,0
2017-09-30T02:03:40.459Z,0
2017-09-30T02:04:42.116Z,0
2017-09-30T02:05:43.785Z,0
2017-09-30T02:06:45.449Z,0
2017-09-30T02:07:47.142Z,0
2017-09-30T02:08:48.824Z,0
2017-09-30T02:09:50.511Z,0
2017-09-30T02:10:52.211Z,0
2017-09-30T02:11:53.914Z,0
2017-09-30T02:12:55.663Z,0
2017-09-30T02:13:58.414Z,0
2017-09-30T02:15:00.209Z,0
2017-09-30T02:16:01.966Z,0
2017-09-30T02:17:03.734Z,0
2017-09-30T02:18:05.561Z,0
2017-09-30T02:19:07.352Z,0
2017-09-30T02:20:09.136Z,0
2017-09-30T02:21:13.922Z,0
2017-09-30T02:22:15.612Z,0
2017-09-30T02:23:20.158Z,0
2017-09-30T02:24:21.867Z,0
2017-09-30T02:25:23.668Z,0
2017-09-30T02:26:25.424Z,0
2017-09-30T02:27:27.221Z,0
2017-09-30T02:28:29.019Z,0
2017-09-30T02:29:30.803Z,0
2017-09-30T02:30:32.577Z,0
2017-09-30T02:31:36.205Z,0
2017-09-30T02:32:37.954Z,0
2017-09-30T02:33:39.676Z,0
2017-09-30T02:34:42.068Z,0
2017-09-30T02:35:45.032Z,0
2017-09-30T02:36:46.790Z,0
2017-09-30T02:37:48.567Z,0
2017-09-30T02:38:50.393Z,0
2017-09-30T02:39:53.425Z,0
2017-09-30T02:40:55.250Z,0
2017-09-30T02:41:57.003Z,0
2017-09-30T02:42:58.738Z,0
2017-09-30T02:44:00.525Z,0
2017-09-30T02:45:02.279Z,0
2017-09-30T02:46:04.063Z,0
2017-09-30T02:47:05.865Z,0
2017-09-30T02:48:07.665Z,0
2017-09-30T02:49:10.574Z,0
2017-09-30T02:50:12.263Z,0
2017-09-30T02:51:14.077Z,0
2017-09-30T02:52:15.853Z,0
2017-09-30T02:53:17.731Z,0
2017-09-30T02:54:20.583Z,0
2017-09-30T02:55:22.556Z,0
2017-09-30T02:56:24.341Z,0
2017-09-30T02:57:26.102Z,0
2017-09-30T02:58:27.927Z,0
2017-09-30T02:59:29.683Z,0
2017-09-30T03:00:31.444Z,0
2017-09-30T03:01:33.309Z,0
2017-09-30T03:02:35.055Z,0
2017-09-30T03:03:36.973Z,0
2017-09-30T03:04:38.830Z,0
2017-09-30T03:05:40.682Z,0
2017-09-30T03:06:42.600Z,0
2017-09-30T03:07:44.456Z,0
2017-09-30T03:08:46.961Z,0
2017-09-30T03:09:51.328Z,0
2017-09-30T03:10:53.121Z,0
2017-09-30T03:11:54.899Z,0
2017-09-30T03:12:56.647Z,0
2017-09-30T03:13:58.414Z,0
2017-09-30T03:15:00.199Z,0
2017-09-30T03:16:01.965Z,0
2017-09-30T03:17:03.710Z,0
2017-09-30T03:18:05.405Z,0
2017-09-30T03:19:07.260Z,0
2017-09-30T03:20:09.132Z,0
2017-09-30T03:21:10.920Z,0
2017-09-30T03:22:12.726Z,0
2017-09-30T03:23:14.563Z,0
2017-09-30T03:24:16.435Z,0
2017-09-30T03:25:18.307Z,0
2017-09-30T03:26:20.179Z,0
2017-09-30T03:27:22.024Z,0
2017-09-30T03:28:23.905Z,0
2017-09-30T03:29:25.795Z,0
2017-09-30T03:30:27.658Z,0
2017-09-30T03:31:29.536Z,0
2017-09-30T03:32:31.396Z,0
2017-09-30T03:33:33.288Z,0
2017-09-30T03:34:35.253Z,0
2017-09-30T03:35:37.132Z,0
2017-09-30T03:36:39.024Z,0
2017-09-30T03:37:40.849Z,0
2017-09-30T03:38:42.710Z,0
2017-09-30T03:39:44.588Z,0
2017-09-30T03:40:46.477Z,0
2017-09-30T03:41:48.359Z,0
2017-09-30T03:42:50.275Z,0
2017-09-30T03:43:52.182Z,0
2017-09-30T03:44:54.078Z,0
2017-09-30T03:45:55.998Z,0
2017-09-30T03:46:57.972Z,0
2017-09-30T03:47:59.818Z,0
2017-09-30T03:49:01.715Z,0
2017-09-30T03:50:03.674Z,0
2017-09-30T03:51:05.631Z,0
2017-09-30T03:52:07.501Z,0
2017-09-30T03:53:09.353Z,0
2017-09-30T03:54:11.235Z,0
2017-09-30T03:55:13.127Z,0
2017-09-30T03:56:14.968Z,0
2017-09-30T03:57:16.757Z,0
2017-09-30T03:58:18.546Z,0
2017-09-30T03:59:20.335Z,0
2017-09-30T04:00:22.142Z,0
2017-09-30T04:01:23.955Z,0
2017-09-30T04:02:25.710Z,0
2017-09-30T04:03:27.479Z,0
2017-09-30T04:04:29.390Z,0
2017-09-30T04:05:31.271Z,0
2017-09-30T04:06:33.133Z,0
2017-09-30T04:07:35.054Z,0
2017-09-30T04:08:36.983Z,0
2017-09-30T04:09:38.920Z,0
2017-09-30T04:10:40.809Z,0
2017-09-30T04:11:42.737Z,0
2017-09-30T04:12:44.661Z,0
2017-09-30T04:13:46.546Z,0
2017-09-30T04:14:48.362Z,0
2017-09-30T04:15:50.280Z,0
2017-09-30T04:16:52.205Z,0
2017-09-30T04:17:54.449Z,0
2017-09-30T04:18:56.466Z,0
2017-09-30T04:19:58.406Z,0
2017-09-30T04:21:00.562Z,0
2017-09-30T04:22:02.974Z,0
2017-09-30T04:23:05.066Z,0
2017-09-30T04:24:07.713Z,0
2017-09-30T04:25:09.999Z,0
2017-09-30T04:26:11.958Z,0
2017-09-30T04:27:13.943Z,0
2017-09-30T04:28:15.852Z,0
2017-09-30T04:29:18.167Z,0
2017-09-30T04:30:20.372Z,0
2017-09-30T04:31:22.665Z,0
2017-09-30T04:32:24.888Z,0
2017-09-30T04:33:26.860Z,0
2017-09-30T04:34:28.870Z,0
2017-09-30T04:35:31.038Z,0
2017-09-30T04:36:33.023Z,0
2017-09-30T04:37:34.938Z,0
2017-09-30T04:38:36.882Z,0
2017-09-30T04:39:38.822Z,0
2017-09-30T04:40:40.806Z,0
2017-09-30T04:41:42.850Z,0
2017-09-30T04:42:44.947Z,0
2017-09-30T04:43:46.961Z,0
2017-09-30T04:44:48.931Z,0
2017-09-30T04:45:50.905Z,0
2017-09-30T04:46:52.967Z,0
2017-09-30T04:47:54.958Z,0
2017-09-30T04:48:56.989Z,0
2017-09-30T04:49:58.878Z,0
2017-09-30T04:51:00.862Z,0
2017-09-30T04:52:02.865Z,0
2017-09-30T04:53:04.837Z,0
2017-09-30T04:54:06.671Z,0
2017-09-30T04:55:08.534Z,0
2017-09-30T04:56:10.327Z,0
2017-09-30T04:57:12.193Z,0
2017-09-30T04:58:13.954Z,0
2017-09-30T04:59:15.701Z,0
2017-09-30T05:00:17.439Z,0
2017-09-30T05:01:19.229Z,0
2017-09-30T05:02:21.068Z,0
2017-09-30T05:03:22.847Z,0
2017-09-30T05:04:24.620Z,0
2017-09-30T05:05:26.404Z,0
2017-09-30T05:06:28.158Z,0
2017-09-30T05:07:29.950Z,0
2017-09-30T05:08:31.712Z,0
2017-09-30T05:09:33.443Z,0
2017-09-30T05:10:35.200Z,0
2017-09-30T05:11:36.978Z,0
2017-09-30T05:12:38.771Z,0
2017-09-30T05:13:40.594Z,0
2017-09-30T05:14:42.367Z,0
2017-09-30T05:15:44.147Z,0
2017-09-30T05:16:45.934Z,0
2017-09-30T05:17:47.749Z,0
2017-09-30T05:18:49.482Z,0
2017-09-30T05:19:51.265Z,0
2017-09-30T05:20:53.030Z,0
2017-09-30T05:21:54.807Z,0
2017-09-30T05:22:56.580Z,5
2017-09-30T05:23:58.333Z,5
2017-09-30T05:25:00.110Z,5
2017-09-30T05:26:01.905Z,5
2017-09-30T05:27:03.669Z,5
2017-09-30T05:28:05.455Z,10
2017-09-30T05:29:07.229Z,10
2017-09-30T05:30:09.002Z,10
2017-09-30T05:31:10.780Z,10
2017-09-30T05:32:12.565Z,10
2017-09-30T05:33:14.314Z,10
2017-09-30T05:34:16.089Z,10
2017-09-30T05:35:17.918Z,10
2017-09-30T05:36:19.690Z,15
2017-09-30T05:37:21.478Z,15
2017-09-30T05:38:23.239Z,20
2017-09-30T05:39:24.996Z,20
2017-09-30T05:40:26.784Z,25
2017-09-30T05:41:28.529Z,25
2017-09-30T05:42:30.331Z,25
2017-09-30T05:43:32.127Z,30
2017-09-30T05:44:33.925Z,30
2017-09-30T05:45:35.713Z,35
2017-09-30T05:46:37.552Z,40
2017-09-30T05:47:39.313Z,45
2017-09-30T05:48:41.125Z,50
2017-09-30T05:49:42.908Z,55
2017-09-30T05:50:44.661Z,60
2017-09-30T05:51:46.406Z,60
2017-09-30T05:52:48.218Z,65
2017-09-30T05:53:49.961Z,70
2017-09-30T05:54:51.734Z,70
2017-09-30T06:01:11.336Z,70
2017-09-30T06:02:12.983Z,75
2017-09-30T06:03:14.668Z,75
2017-09-30T06:04:16.340Z,70
2017-09-30T06:05:18.003Z,70
2017-09-30T06:06:19.690Z,75
2017-09-30T06:07:21.350Z,75
2017-09-30T06:08:23.021Z,75
2017-09-30T06:09:24.700Z,75
2017-09-30T06:10:26.365Z,80
2017-09-30T06:11:28.030Z,85
2017-09-30T06:12:29.689Z,90
2017-09-30T06:13:31.353Z,95
2017-09-30T06:14:33.026Z,95
2017-09-30T06:15:34.682Z,100
2017-09-30T06:16:36.375Z,105
2017-09-30T06:17:38.037Z,105
2017-09-30T06:18:39.683Z,110
2017-09-30T06:19:41.353Z,115
2017-09-30T06:20:43.047Z,115
2017-09-30T06:21:44.716Z,120
2017-09-30T06:22:46.371Z,125
2017-09-30T06:23:48.037Z,135
2017-09-30T06:24:49.700Z,140
2017-09-30T06:25:51.400Z,145
2017-09-30T06:26:53.111Z,155
2017-09-30T06:27:54.854Z,175
2017-09-30T06:28:56.534Z,185
2017-09-30T06:29:58.282Z,185
2017-09-30T06:31:00.076Z,180
2017-09-30T06:32:01.821Z,175
2017-09-30T06:33:03.558Z,165
2017-09-30T06:34:05.366Z,160
2017-09-30T06:35:07.126Z,160
2017-09-30T06:36:08.869Z,160
2017-09-30T06:37:10.604Z,150
2017-09-30T06:38:12.362Z,145
2017-09-30T06:39:14.186Z,155
2017-09-30T06:40:15.965Z,180
2017-09-30T06:41:17.745Z,220
2017-09-30T06:42:19.549Z,235
2017-09-30T06:43:21.359Z,245
2017-09-30T06:44:23.114Z,255
2017-09-30T06:45:24.990Z,260
2017-09-30T06:46:26.805Z,255
2017-09-30T06:47:28.635Z,255
2017-09-30T06:48:30.424Z,280
2017-09-30T06:49:32.195Z,290
2017-09-30T06:50:34.022Z,290
2017-09-30T06:51:35.809Z,270
2017-09-30T06:52:37.586Z,270
2017-09-30T06:53:39.408Z,290
2017-09-30T06:54:41.181Z,315
2017-09-30T06:55:42.994Z,335
2017-09-30T06:56:44.836Z,340
2017-09-30T06:57:46.664Z,340
2017-09-30T06:58:48.452Z,340
2017-09-30T06:59:50.247Z,335
2017-09-30T07:00:52.137Z,330
2017-09-30T07:01:53.896Z,320
2017-09-30T07:02:55.706Z,295
2017-09-30T07:03:57.499Z,265
2017-09-30T07:04:59.262Z,250
2017-09-30T07:06:01.021Z,240
2017-09-30T07:07:03.389Z,230
2017-09-30T07:08:05.136Z,245
2017-09-30T07:09:13.846Z,250
2017-09-30T07:10:16.741Z,220
2017-09-30T07:11:18.540Z,190
2017-09-30T07:12:21.261Z,215
2017-09-30T07:13:23.623Z,230
2017-09-30T07:14:25.543Z,235
2017-09-30T07:15:27.299Z,225
2017-09-30T07:16:29.082Z,205
2017-09-30T07:17:30.853Z,185
2017-09-30T07:18:43.784Z,175
2017-09-30T07:19:45.492Z,170
2017-09-30T07:20:47.319Z,185
2017-09-30T07:21:49.112Z,190
2017-09-30T07:22:51.261Z,175
2017-09-30T07:23:53.105Z,170
2017-09-30T07:24:55.902Z,170
2017-09-30T07:25:57.674Z,165
2017-09-30T07:26:59.891Z,155
2017-09-30T07:28:01.702Z,170
2017-09-30T07:29:04.191Z,195
2017-09-30T07:30:05.932Z,200
2017-09-30T07:31:07.745Z,200
2017-09-30T07:32:09.514Z,215
2017-09-30T07:33:11.302Z,230
2017-09-30T07:34:13.098Z,255
2017-09-30T07:35:14.897Z,265
2017-09-30T07:36:16.764Z,255
2017-09-30T07:37:18.552Z,265
2017-09-30T07:38:20.369Z,280
2017-09-30T07:39:22.186Z,305
2017-09-30T07:40:23.970Z,310
2017-09-30T07:41:25.695Z,310
2017-09-30T07:42:27.469Z,330
2017-09-30T07:43:29.213Z,320
2017-09-30T07:44:30.891Z,270
2017-09-30T07:45:32.609Z,245
2017-09-30T07:46:34.294Z,245
2017-09-30T07:47:35.986Z,240
2017-09-30T07:48:37.688Z,215
2017-09-30T07:49:39.418Z,210
2017-09-30T07:50:41.148Z,210
2017-09-30T07:51:42.830Z,210
2017-09-30T07:52:44.937Z,215
2017-09-30T07:53:46.639Z,225
2017-09-30T07:54:48.401Z,220
2017-09-30T07:55:50.096Z,230
2017-09-30T07:56:51.815Z,270
2017-09-30T07:57:53.582Z,295
2017-09-30T07:58:55.318Z,295
2017-09-30T07:59:57.316Z,310
2017-09-30T08:00:59.087Z,315
2017-09-30T08:02:00.798Z,335
2017-09-30T08:03:02.539Z,340
2017-09-30T08:04:04.251Z,415
2017-09-30T08:05:05.928Z,435
2017-09-30T08:06:07.714Z,450
2017-09-30T08:07:09.470Z,520
2017-09-30T08:08:11.148Z,510
2017-09-30T08:09:12.887Z,515
2017-09-30T08:10:14.567Z,480
2017-09-30T08:11:16.262Z,510
2017-09-30T08:12:18.018Z,500
2017-09-30T08:13:19.691Z,460
2017-09-30T08:14:21.367Z,420
2017-09-30T08:15:23.077Z,400
2017-09-30T08:16:24.787Z,435
2017-09-30T08:17:26.454Z,390
2017-09-30T08:18:28.174Z,350
2017-09-30T08:19:29.843Z,330
2017-09-30T08:20:31.546Z,325
2017-09-30T08:21:33.412Z,320
2017-09-30T08:22:35.127Z,300
2017-09-30T08:23:36.822Z,280
2017-09-30T08:24:38.579Z,270
2017-09-30T08:25:40.286Z,280
2017-09-30T08:26:41.993Z,260
2017-09-30T08:27:43.669Z,260
2017-09-30T08:28:45.357Z,250
2017-09-30T08:29:47.060Z,230
2017-09-30T08:30:48.746Z,235
2017-09-30T08:31:50.423Z,250
2017-09-30T08:32:52.108Z,240
2017-09-30T08:33:53.770Z,325
2017-09-30T08:34:55.443Z,350
2017-09-30T08:35:57.144Z,380
2017-09-30T08:36:58.858Z,345
2017-09-30T08:38:00.523Z,340
2017-09-30T08:39:02.229Z,375
2017-09-30T08:40:03.911Z,390
2017-09-30T08:41:05.603Z,395
2017-09-30T08:42:07.300Z,405
2017-09-30T08:43:08.980Z,450
2017-09-30T08:44:10.657Z,450
2017-09-30T08:45:12.333Z,425
2017-09-30T08:46:14.075Z,385
2017-09-30T08:47:15.808Z,400
2017-09-30T08:48:17.530Z,440
2017-09-30T08:49:19.273Z,440
2017-09-30T08:50:20.986Z,410
2017-09-30T08:51:22.741Z,365
2017-09-30T08:52:24.462Z,310
2017-09-30T08:53:26.264Z,265
2017-09-30T08:54:28.167Z,275
2017-09-30T08:55:29.885Z,300
2017-09-30T08:56:31.641Z,370
2017-09-30T08:57:33.366Z,425
2017-09-30T08:58:35.261Z,455
2017-09-30T08:59:36.999Z,470
2017-09-30T09:00:38.742Z,445
2017-09-30T09:01:40.488Z,490
2017-09-30T09:02:42.207Z,455
2017-09-30T09:03:43.897Z,390
2017-09-30T09:04:45.575Z,305
2017-09-30T09:05:47.239Z,220
2017-09-30T09:06:48.908Z,215
2017-09-30T09:07:50.576Z,215
2017-09-30T09:08:52.255Z,230
2017-09-30T09:09:53.997Z,240
2017-09-30T09:10:55.668Z,230
2017-09-30T09:11:57.322Z,230
2017-09-30T09:12:59.003Z,210
2017-09-30T09:14:00.677Z,195
2017-09-30T09:15:02.339Z,210
2017-09-30T09:16:04.022Z,205
2017-09-30T09:17:05.737Z,195
2017-09-30T09:18:07.424Z,210
2017-09-30T09:19:09.166Z,220
2017-09-30T09:20:10.825Z,180
2017-09-30T09:21:12.492Z,160
2017-09-30T09:22:14.164Z,160
2017-09-30T09:23:15.835Z,185
2017-09-30T09:24:17.509Z,230
2017-09-30T09:25:19.179Z,240
2017-09-30T09:26:20.851Z,245
2017-09-30T09:27:22.519Z,275
2017-09-30T09:28:24.192Z,275
2017-09-30T09:29:25.872Z,290
2017-09-30T09:30:27.580Z,280
2017-09-30T09:31:29.270Z,255
2017-09-30T09:32:30.978Z,260
2017-09-30T09:33:32.643Z,270
2017-09-30T09:34:34.325Z,285
2017-09-30T09:35:35.994Z,315
2017-09-30T09:36:37.658Z,370
2017-09-30T09:37:39.684Z,400
2017-09-30T09:38:41.334Z,425
2017-09-30T09:39:43.029Z,500
2017-09-30T09:40:44.705Z,545
2017-09-30T09:41:46.414Z,605
2017-09-30T09:42:48.153Z,650
2017-09-30T09:43:49.897Z,640
2017-09-30T09:44:51.641Z,665
2017-09-30T09:45:53.366Z,750
2017-09-30T09:46:55.104Z,770
2017-09-30T09:47:56.806Z,665
2017-09-30T09:48:58.481Z,645
2017-09-30T09:50:00.177Z,720
2017-09-30T09:51:01.876Z,855
2017-09-30T09:52:03.572Z,730
2017-09-30T09:53:05.254Z,630
2017-09-30T09:54:06.987Z,595
2017-09-30T09:55:08.705Z,635
2017-09-30T09:56:10.397Z,635
2017-09-30T10:02:00.495Z,460
2017-09-30T10:03:02.243Z,430
2017-09-30T10:04:03.904Z,425
2017-09-30T10:05:05.612Z,420
2017-09-30T10:06:07.308Z,440
2017-09-30T10:07:08.977Z,470
2017-09-30T10:08:10.642Z,510
2017-09-30T10:09:12.314Z,615
2017-09-30T10:10:13.985Z,805
2017-09-30T10:11:15.651Z,870
2017-09-30T10:12:17.319Z,930
2017-09-30T10:13:18.979Z,1215
2017-09-30T10:14:20.688Z,1365
2017-09-30T10:15:22.445Z,1325
2017-09-30T10:16:24.120Z,1005
2017-09-30T10:17:25.820Z,1000
2017-09-30T10:18:27.525Z,1150
2017-09-30T10:19:29.232Z,1340
2017-09-30T10:20:30.879Z,1280
2017-09-30T10:21:32.840Z,1620
2017-09-30T10:22:34.648Z,1245
2017-09-30T10:23:36.314Z,1125
2017-09-30T10:24:38.103Z,1125
2017-09-30T10:25:39.781Z,1180
2017-09-30T10:26:41.462Z,1185
2017-09-30T10:27:43.133Z,1225
2017-09-30T10:28:44.830Z,1145
2017-09-30T10:29:46.500Z,1165
2017-09-30T10:30:48.181Z,1225
2017-09-30T10:31:49.868Z,1540
2017-09-30T10:32:51.536Z,1115
2017-09-30T10:33:53.212Z,1070
2017-09-30T10:34:54.912Z,1040
2017-09-30T10:35:56.593Z,995
2017-09-30T10:36:58.268Z,925
2017-09-30T10:37:59.937Z,845
2017-09-30T10:39:01.742Z,780
2017-09-30T10:40:03.483Z,790
2017-09-30T10:41:05.230Z,815
2017-09-30T10:42:06.982Z,780
2017-09-30T10:43:08.678Z,765
2017-09-30T10:44:10.367Z,735
2017-09-30T10:45:12.096Z,815
2017-09-30T10:46:13.807Z,925
2017-09-30T10:47:15.571Z,935
2017-09-30T10:48:17.254Z,880
2017-09-30T10:49:18.944Z,760
2017-09-30T10:50:20.628Z,695
2017-09-30T10:51:22.311Z,650
2017-09-30T10:52:24.039Z,615
2017-09-30T10:53:25.698Z,665
2017-09-30T10:54:27.415Z,585
2017-09-30T10:55:29.093Z,530
2017-09-30T10:56:30.762Z,580
2017-09-30T10:57:32.448Z,680
2017-09-30T10:58:34.125Z,630
2017-09-30T10:59:35.814Z,610
2017-09-30T11:00:37.493Z,710
2017-09-30T11:01:39.159Z,745
2017-09-30T11:02:40.832Z,670
2017-09-30T11:03:42.517Z,550
2017-09-30T11:04:44.192Z,505
2017-09-30T11:05:45.860Z,585
2017-09-30T11:06:47.536Z,675
2017-09-30T11:07:49.234Z,765
2017-09-30T11:08:50.902Z,835
2017-09-30T11:09:52.570Z,835
2017-09-30T11:10:54.240Z,845
2017-09-30T11:11:55.911Z,835
2017-09-30T11:12:57.582Z,795
2017-09-30T11:13:59.273Z,750
2017-09-30T11:15:00.944Z,720
2017-09-30T11:16:02.615Z,710
2017-09-30T11:17:04.282Z,665
2017-09-30T11:18:06.020Z,635
2017-09-30T11:19:07.697Z,695
2017-09-30T11:20:09.396Z,770
2017-09-30T11:21:11.128Z,755
2017-09-30T11:22:12.806Z,725
2017-09-30T11:23:14.475Z,670
2017-09-30T11:24:16.149Z,605
2017-09-30T11:25:17.828Z,585
2017-09-30T11:26:19.490Z,610
2017-09-30T11:27:21.158Z,640
2017-09-30T11:28:22.832Z,650
2017-09-30T11:29:24.497Z,600
2017-09-30T11:30:26.180Z,560
2017-09-30T11:31:27.864Z,560
2017-09-30T11:32:29.550Z,595
2017-09-30T11:33:31.231Z,560
2017-09-30T11:34:32.917Z,515
2017-09-30T11:35:34.596Z,480
2017-09-30T11:36:36.269Z,435
2017-09-30T11:37:37.945Z,390
2017-09-30T11:38:39.634Z,300
2017-09-30T11:39:41.290Z,250
2017-09-30T11:40:42.977Z,200
2017-09-30T11:41:44.640Z,165
2017-09-30T11:42:46.311Z,165
2017-09-30T11:43:47.987Z,195
2017-09-30T11:44:49.654Z,205
2017-09-30T11:45:51.323Z,190
2017-09-30T11:46:52.991Z,195
2017-09-30T11:47:54.661Z,210
2017-09-30T11:48:56.343Z,255
2017-09-30T11:49:58.011Z,240
2017-09-30T11:50:59.685Z,175
2017-09-30T11:52:01.351Z,130
2017-09-30T11:53:03.031Z,145
2017-09-30T11:54:04.719Z,240
2017-09-30T11:55:06.390Z,330
2017-09-30T11:56:08.061Z,385
2017-09-30T11:57:09.805Z,440
2017-09-30T11:58:11.479Z,510
2017-09-30T11:59:13.174Z,555
2017-09-30T12:00:14.837Z,595
2017-09-30T12:01:17.904Z,630
2017-09-30T12:02:21.068Z,620
2017-09-30T12:03:22.755Z,505
2017-09-30T12:04:24.420Z,410
2017-09-30T12:05:26.093Z,345
2017-09-30T12:06:27.751Z,325
2017-09-30T12:07:29.428Z,305
2017-09-30T12:08:31.096Z,275
2017-09-30T12:09:32.773Z,255
2017-09-30T12:10:34.432Z,245
2017-09-30T12:11:36.100Z,245
2017-09-30T12:12:37.769Z,265
2017-09-30T12:13:39.452Z,285
2017-09-30T12:14:41.164Z,310
2017-09-30T12:15:42.813Z,395
2017-09-30T12:16:44.502Z,460
2017-09-30T12:17:46.175Z,505
2017-09-30T12:18:47.840Z,560
2017-09-30T12:19:49.518Z,610
2017-09-30T12:20:51.204Z,605
2017-09-30T12:21:52.883Z,555
2017-09-30T12:22:54.659Z,500
2017-09-30T12:23:56.341Z,475
2017-09-30T12:24:58.035Z,475
2017-09-30T12:25:59.711Z,490
2017-09-30T12:27:01.382Z,560
2017-09-30T12:28:03.106Z,655
2017-09-30T12:29:04.778Z,770
2017-09-30T12:30:06.450Z,1000
2017-09-30T12:31:08.157Z,920
2017-09-30T12:32:09.804Z,890
2017-09-30T12:33:11.475Z,910
2017-09-30T12:34:13.181Z,1090
2017-09-30T12:35:14.853Z,1085
2017-09-30T12:36:16.536Z,1150
2017-09-30T12:37:18.182Z,880
2017-09-30T12:38:19.857Z,865
2017-09-30T12:39:21.542Z,855
2017-09-30T12:40:23.222Z,655
2017-09-30T12:41:24.898Z,525
2017-09-30T12:42:26.574Z,490
2017-09-30T12:43:28.269Z,450
2017-09-30T12:44:29.946Z,420
2017-09-30T12:45:31.702Z,380
2017-09-30T12:46:33.375Z,380
2017-09-30T12:47:35.799Z,425
2017-09-30T12:48:37.474Z,485
2017-09-30T12:49:39.183Z,490
2017-09-30T12:50:40.888Z,515
2017-09-30T12:51:42.681Z,595
2017-09-30T12:52:44.364Z,655
2017-09-30T12:53:46.033Z,655
2017-09-30T12:54:47.862Z,740
2017-09-30T12:55:49.785Z,770
2017-09-30T12:56:51.534Z,735
2017-09-30T12:57:53.782Z,720
2017-09-30T12:58:55.477Z,765
2017-09-30T12:59:57.154Z,725
2017-09-30T13:00:58.839Z,685
2017-09-30T13:02:00.521Z,690
2017-09-30T13:03:03.221Z,690
2017-09-30T13:04:04.926Z,665
2017-09-30T13:05:06.614Z,650
2017-09-30T13:06:08.356Z,640
2017-09-30T13:07:10.097Z,625
2017-09-30T13:08:11.903Z,610
2017-09-30T13:09:13.750Z,585
2017-09-30T13:10:15.422Z,570
2017-09-30T13:11:17.124Z,570
2017-09-30T13:12:18.858Z,560
2017-09-30T13:13:20.635Z,550
2017-09-30T13:14:22.360Z,530
2017-09-30T13:15:24.332Z,515
2017-09-30T13:16:26.094Z,500
2017-09-30T13:17:27.874Z,500
2017-09-30T13:18:29.624Z,515
2017-09-30T13:19:31.451Z,530
2017-09-30T13:20:33.252Z,540
2017-09-30T13:21:35.056Z,550
2017-09-30T13:22:36.777Z,545
2017-09-30T13:23:38.489Z,505
2017-09-30T13:24:41.180Z,420
2017-09-30T13:25:42.957Z,340
2017-09-30T13:26:44.726Z,285
2017-09-30T13:27:46.619Z,210
2017-09-30T13:28:48.460Z,155
2017-09-30T13:29:50.239Z,115
2017-09-30T13:30:52.059Z,95
2017-09-30T13:31:53.912Z,60
2017-09-30T13:32:55.644Z,30
2017-09-30T13:33:57.436Z,20
2017-09-30T13:34:59.130Z,25
2017-09-30T13:36:00.892Z,45
2017-09-30T13:37:02.844Z,70
2017-09-30T13:38:04.677Z,85
2017-09-30T13:39:06.598Z,90
2017-09-30T13:40:08.482Z,85
2017-09-30T13:41:10.254Z,95
2017-09-30T13:42:12.067Z,110
2017-09-30T13:43:13.965Z,105
2017-09-30T13:44:15.766Z,130
2017-09-30T13:45:17.593Z,145
2017-09-30T13:46:19.362Z,150
2017-09-30T13:47:21.221Z,140
2017-09-30T13:48:22.981Z,150
2017-09-30T13:49:24.904Z,165
2017-09-30T13:50:26.707Z,170
2017-09-30T13:51:28.422Z,175
2017-09-30T13:52:30.210Z,180
2017-09-30T13:53:32.832Z,200
2017-09-30T13:54:34.686Z,190
2017-09-30T13:55:36.423Z,170
2017-09-30T14:01:36.299Z,195
2017-09-30T14:02:38.068Z,200
2017-09-30T14:04:29.909Z,195
2017-09-30T14:05:31.573Z,190
2017-09-30T14:06:33.280Z,200
2017-09-30T14:07:34.972Z,210
2017-09-30T14:08:36.640Z,215
2017-09-30T14:09:38.302Z,205
2017-09-30T14:10:39.972Z,190
2017-09-30T14:11:41.642Z,170
2017-09-30T14:12:43.303Z,190
2017-09-30T14:13:44.973Z,170
2017-09-30T14:14:46.620Z,155
2017-09-30T14:15:49.191Z,150
2017-09-30T14:16:50.877Z,130
2017-09-30T14:17:52.532Z,145
2017-09-30T14:18:54.199Z,145
2017-09-30T14:19:55.853Z,140
2017-09-30T14:20:57.514Z,125
2017-09-30T14:21:59.177Z,115
2017-09-30T14:23:00.844Z,110
2017-09-30T14:24:02.545Z,125
2017-09-30T14:25:04.199Z,130
2017-09-30T14:26:05.870Z,120
2017-09-30T14:27:07.526Z,100
2017-09-30T14:28:09.186Z,95
2017-09-30T14:29:10.849Z,95
2017-09-30T14:30:12.551Z,85
2017-09-30T14:31:14.221Z,90
2017-09-30T14:32:15.887Z,80
2017-09-30T14:33:17.553Z,75
2017-09-30T14:34:19.225Z,80
2017-09-30T14:35:20.890Z,95
2017-09-30T14:36:22.647Z,85
2017-09-30T14:37:24.313Z,65
2017-09-30T14:38:25.979Z,50
2017-09-30T14:39:28.493Z,45
2017-09-30T14:40:30.157Z,50
2017-09-30T14:41:31.823Z,60
2017-09-30T14:42:33.480Z,70
2017-09-30T14:43:35.143Z,70
2017-09-30T14:44:36.811Z,55
2017-09-30T14:45:38.471Z,50
2017-09-30T14:46:40.143Z,45
2017-09-30T14:47:41.926Z,50
2017-09-30T14:48:43.632Z,45
2017-09-30T14:49:45.301Z,50
2017-09-30T14:50:55.283Z,50
2017-09-30T14:52:08.109Z,45
2017-09-30T14:53:22.620Z,50
2017-09-30T14:54:37.757Z,65
2017-09-30T14:55:50.189Z,70
2017-09-30T14:57:07.675Z,80
2017-09-30T14:58:23.176Z,85